sensor_id;sensor_type;location;lat;lon;timestamp;pressure;altitude;pressure_sealevel;temperature;humidity
69027;BME280;56080;47.594;19.116;2023-04-08T00:07:44;100478;;;4.04;97.36
69027;BME280;56080;47.594;19.116;2023-04-08T00:17:45;100467;;;4.02;97.94
69027;BME280;56080;47.594;19.116;2023-04-08T00:27:45;100472;;;4.32;97.49
69027;BME280;56080;47.594;19.116;2023-04-08T00:37:46;100475;;;4.20;99.45
69027;BME280;56080;47.594;19.116;2023-04-08T00:47:51;100479;;;4.32;99.04
69027;BME280;56080;47.594;19.116;2023-04-08T00:57:46;100484;;;4.43;96.71
69027;BME280;56080;47.594;19.116;2023-04-08T01:07:47;100481;;;4.29;97.29
69027;BME280;56080;47.594;19.116;2023-04-08T01:17:47;100477;;;4.39;97.20
69027;BME280;56080;47.594;19.116;2023-04-08T01:27:47;100488;;;4.31;98.19
69027;BME280;56080;47.594;19.116;2023-04-08T01:37:48;100484;;;4.25;98.79
69027;BME280;56080;47.594;19.116;2023-04-08T01:47:48;100484;;;4.17;100.00
69027;BME280;56080;47.594;19.116;2023-04-08T01:57:50;100481;;;4.21;99.00
69027;BME280;56080;47.594;19.116;2023-04-08T02:07:49;100485;;;4.17;99.10
69027;BME280;56080;47.594;19.116;2023-04-08T02:17:52;100483;;;3.94;98.83
69027;BME280;56080;47.594;19.116;2023-04-08T02:27:50;100478;;;4.12;98.81
69027;BME280;56080;47.594;19.116;2023-04-08T02:37:50;100471;;;4.02;98.19
69027;BME280;56080;47.594;19.116;2023-04-08T02:47:51;100471;;;3.99;97.61
69027;BME280;56080;47.594;19.116;2023-04-08T02:57:51;100477;;;3.92;97.86
69027;BME280;56080;47.594;19.116;2023-04-08T03:07:51;100476;;;3.92;98.18
69027;BME280;56080;47.594;19.116;2023-04-08T03:17:51;100477;;;4.10;98.01
69027;BME280;56080;47.594;19.116;2023-04-08T03:27:52;100486;;;4.07;97.84
69027;BME280;56080;47.594;19.116;2023-04-08T03:37:53;100498;;;4.07;98.50
69027;BME280;56080;47.594;19.116;2023-04-08T03:47:53;100502;;;3.99;98.38
69027;BME280;56080;47.594;19.116;2023-04-08T03:57:53;100507;;;4.04;98.92
69027;BME280;56080;47.594;19.116;2023-04-08T04:07:53;100517;;;4.00;99.05
69027;BME280;56080;47.594;19.116;2023-04-08T04:17:54;100520;;;4.11;99.10
69027;BME280;56080;47.594;19.116;2023-04-08T04:27:54;100524;;;4.08;98.17
69027;BME280;56080;47.594;19.116;2023-04-08T04:37:54;100525;;;3.93;99.24
69027;BME280;56080;47.594;19.116;2023-04-08T04:47:54;100534;;;4.11;98.69
69027;BME280;56080;47.594;19.116;2023-04-08T04:57:55;100536;;;4.04;98.43
69027;BME280;56080;47.594;19.116;2023-04-08T05:07:55;100544;;;4.02;99.32
69027;BME280;56080;47.594;19.116;2023-04-08T05:27:56;100552;;;4.22;100.00
69027;BME280;56080;47.594;19.116;2023-04-08T05:37:56;100564;;;4.26;100.00
69027;BME280;56080;47.594;19.116;2023-04-08T05:47:56;100577;;;4.40;100.00
69027;BME280;56080;47.594;19.116;2023-04-08T05:57:57;100578;;;4.43;99.52
69027;BME280;56080;47.594;19.116;2023-04-08T06:07:57;100581;;;4.24;99.35
69027;BME280;56080;47.594;19.116;2023-04-08T06:17:58;100589;;;4.23;99.77
69027;BME280;56080;47.594;19.116;2023-04-08T06:27:58;100590;;;4.30;99.67
69027;BME280;56080;47.594;19.116;2023-04-08T06:37:58;100591;;;4.12;99.73
69027;BME280;56080;47.594;19.116;2023-04-08T06:47:59;100604;;;4.32;100.00
69027;BME280;56080;47.594;19.116;2023-04-08T06:58:01;100613;;;4.31;99.92
69027;BME280;56080;47.594;19.116;2023-04-08T07:07:59;100616;;;4.35;99.75
69027;BME280;56080;47.594;19.116;2023-04-08T07:18:00;100620;;;4.31;99.28
69027;BME280;56080;47.594;19.116;2023-04-08T07:28:00;100629;;;4.25;99.91
69027;BME280;56080;47.594;19.116;2023-04-08T07:38:00;100643;;;4.66;99.33
69027;BME280;56080;47.594;19.116;2023-04-08T07:48:01;100652;;;4.52;99.59
69027;BME280;56080;47.594;19.116;2023-04-08T07:58:01;100674;;;4.60;99.60
69027;BME280;56080;47.594;19.116;2023-04-08T08:08:01;100678;;;4.67;100.00
69027;BME280;56080;47.594;19.116;2023-04-08T08:18:02;100675;;;4.81;98.60
69027;BME280;56080;47.594;19.116;2023-04-08T08:28:02;100680;;;4.79;98.57
69027;BME280;56080;47.594;19.116;2023-04-08T08:38:02;100685;;;4.80;98.83
69027;BME280;56080;47.594;19.116;2023-04-08T08:48:03;100691;;;4.67;99.60
69027;BME280;56080;47.594;19.116;2023-04-08T08:58:03;100700;;;4.57;95.40
69027;BME280;56080;47.594;19.116;2023-04-08T09:08:03;100702;;;4.92;97.18
69027;BME280;56080;47.594;19.116;2023-04-08T09:18:11;100718;;;4.97;95.49
69027;BME280;56080;47.594;19.116;2023-04-08T09:28:05;100733;;;4.98;91.98
69027;BME280;56080;47.594;19.116;2023-04-08T09:38:05;100732;;;5.19;92.45
69027;BME280;56080;47.594;19.116;2023-04-08T09:48:09;100743;;;5.30;93.53
69027;BME280;56080;47.594;19.116;2023-04-08T09:58:15;100744;;;5.37;93.55
69027;BME280;56080;47.594;19.116;2023-04-08T10:08:06;100744;;;5.25;92.44
69027;BME280;56080;47.594;19.116;2023-04-08T10:38:08;100745;;;5.89;89.45
69027;BME280;56080;47.594;19.116;2023-04-08T10:48:16;100745;;;5.77;87.23
69027;BME280;56080;47.594;19.116;2023-04-08T10:58:09;100749;;;5.75;87.82
69027;BME280;56080;47.594;19.116;2023-04-08T11:08:09;100751;;;5.62;88.14
69027;BME280;56080;47.594;19.116;2023-04-08T11:18:09;100749;;;5.36;87.37
69027;BME280;56080;47.594;19.116;2023-04-08T11:28:10;100744;;;5.69;89.89
69027;BME280;56080;47.594;19.116;2023-04-08T11:38:10;100746;;;5.59;87.88
69027;BME280;56080;47.594;19.116;2023-04-08T11:48:14;100755;;;5.63;87.47
69027;BME280;56080;47.594;19.116;2023-04-08T11:58:11;100756;;;5.84;87.61
69027;BME280;56080;47.594;19.116;2023-04-08T12:08:12;100747;;;5.86;85.87
69027;BME280;56080;47.594;19.116;2023-04-08T12:18:12;100749;;;6.35;84.37
69027;BME280;56080;47.594;19.116;2023-04-08T12:28:13;100740;;;6.11;84.41
69027;BME280;56080;47.594;19.116;2023-04-08T12:48:14;100733;;;6.49;80.08
69027;BME280;56080;47.594;19.116;2023-04-08T12:58:15;100738;;;6.47;80.56
69027;BME280;56080;47.594;19.116;2023-04-08T13:08:16;100736;;;6.34;78.75
69027;BME280;56080;47.594;19.116;2023-04-08T13:18:16;100738;;;6.56;78.40
69027;BME280;56080;47.594;19.116;2023-04-08T13:28:16;100730;;;6.83;80.64
69027;BME280;56080;47.594;19.116;2023-04-08T13:38:17;100725;;;6.77;79.95
69027;BME280;56080;47.594;19.116;2023-04-08T13:48:17;100720;;;7.02;79.62
69027;BME280;56080;47.594;19.116;2023-04-08T13:58:25;100718;;;7.04;76.08
69027;BME280;56080;47.594;19.116;2023-04-08T14:08:26;100715;;;7.02;75.26
69027;BME280;56080;47.594;19.116;2023-04-08T14:18:19;100726;;;6.61;81.77
69027;BME280;56080;47.594;19.116;2023-04-08T14:28:19;100725;;;6.48;82.84
69027;BME280;56080;47.594;19.116;2023-04-08T14:38:20;100735;;;6.86;82.04
69027;BME280;56080;47.594;19.116;2023-04-08T14:48:21;100730;;;6.71;80.79
69027;BME280;56080;47.594;19.116;2023-04-08T14:58:21;100729;;;6.69;79.64
69027;BME280;56080;47.594;19.116;2023-04-08T15:08:22;100730;;;6.75;79.88
69027;BME280;56080;47.594;19.116;2023-04-08T15:18:23;100726;;;6.89;81.22
69027;BME280;56080;47.594;19.116;2023-04-08T15:28:23;100745;;;6.32;83.24
69027;BME280;56080;47.594;19.116;2023-04-08T15:38:25;100741;;;6.26;85.01
69027;BME280;56080;47.594;19.116;2023-04-08T15:48:24;100750;;;6.07;87.04
69027;BME280;56080;47.594;19.116;2023-04-08T15:58:25;100758;;;5.95;86.84
69027;BME280;56080;47.594;19.116;2023-04-08T16:08:26;100762;;;6.27;87.08
69027;BME280;56080;47.594;19.116;2023-04-08T16:18:27;100768;;;6.16;86.16
69027;BME280;56080;47.594;19.116;2023-04-08T16:28:28;100767;;;6.32;87.18
69027;BME280;56080;47.594;19.116;2023-04-08T16:38:28;100775;;;6.28;86.17
69027;BME280;56080;47.594;19.116;2023-04-08T16:48:28;100781;;;6.27;86.21
69027;BME280;56080;47.594;19.116;2023-04-08T16:58:29;100786;;;6.18;86.17
69027;BME280;56080;47.594;19.116;2023-04-08T17:08:29;100794;;;6.19;88.14
69027;BME280;56080;47.594;19.116;2023-04-08T17:18:30;100810;;;6.02;92.13
69027;BME280;56080;47.594;19.116;2023-04-08T17:28:31;100816;;;6.02;92.72
69027;BME280;56080;47.594;19.116;2023-04-08T17:38:31;100826;;;5.93;93.26
69027;BME280;56080;47.594;19.116;2023-04-08T17:48:32;100828;;;5.52;92.85
69027;BME280;56080;47.594;19.116;2023-04-08T17:58:32;100835;;;5.66;92.49
69027;BME280;56080;47.594;19.116;2023-04-08T18:08:33;100842;;;5.48;92.38
69027;BME280;56080;47.594;19.116;2023-04-08T18:18:35;100846;;;5.67;91.97
69027;BME280;56080;47.594;19.116;2023-04-08T18:38:35;100858;;;5.56;91.94
69027;BME280;56080;47.594;19.116;2023-04-08T18:48:35;100872;;;5.47;92.48
69027;BME280;56080;47.594;19.116;2023-04-08T19:08:36;100881;;;5.39;91.40
69027;BME280;56080;47.594;19.116;2023-04-08T19:18:37;100881;;;5.43;91.70
69027;BME280;56080;47.594;19.116;2023-04-08T19:28:37;100888;;;5.47;91.78
69027;BME280;56080;47.594;19.116;2023-04-08T19:38:38;100889;;;5.49;91.68
69027;BME280;56080;47.594;19.116;2023-04-08T19:48:38;100897;;;5.57;92.06
69027;BME280;56080;47.594;19.116;2023-04-08T19:58:39;100899;;;5.42;93.90
69027;BME280;56080;47.594;19.116;2023-04-08T20:08:40;100901;;;5.30;95.05
69027;BME280;56080;47.594;19.116;2023-04-08T20:18:40;100902;;;5.32;95.15
69027;BME280;56080;47.594;19.116;2023-04-08T20:28:41;100903;;;5.21;95.82
69027;BME280;56080;47.594;19.116;2023-04-08T20:38:41;100906;;;5.18;96.30
69027;BME280;56080;47.594;19.116;2023-04-08T20:48:42;100903;;;5.18;97.45
69027;BME280;56080;47.594;19.116;2023-04-08T20:58:42;100905;;;5.27;97.14
69027;BME280;56080;47.594;19.116;2023-04-08T21:08:43;100918;;;5.22;97.60
69027;BME280;56080;47.594;19.116;2023-04-08T21:18:43;100917;;;5.21;97.40
69027;BME280;56080;47.594;19.116;2023-04-08T21:28:44;100922;;;5.09;98.19
69027;BME280;56080;47.594;19.116;2023-04-08T21:38:44;100922;;;5.13;98.66
69027;BME280;56080;47.594;19.116;2023-04-08T21:48:46;100920;;;5.16;98.52
69027;BME280;56080;47.594;19.116;2023-04-08T21:58:46;100922;;;5.14;98.98
69027;BME280;56080;47.594;19.116;2023-04-08T22:08:46;100922;;;5.03;98.96
69027;BME280;56080;47.594;19.116;2023-04-08T22:18:46;100920;;;5.07;99.53
69027;BME280;56080;47.594;19.116;2023-04-08T22:28:47;100926;;;4.95;99.08
69027;BME280;56080;47.594;19.116;2023-04-08T22:38:48;100917;;;5.12;99.41
69027;BME280;56080;47.594;19.116;2023-04-08T22:48:48;100925;;;5.12;99.39
69027;BME280;56080;47.594;19.116;2023-04-08T22:58:49;100919;;;5.10;100.00
69027;BME280;56080;47.594;19.116;2023-04-08T23:08:50;100921;;;4.99;100.00
69027;BME280;56080;47.594;19.116;2023-04-08T23:18:50;100927;;;5.07;100.00
69027;BME280;56080;47.594;19.116;2023-04-08T23:28:51;100922;;;4.98;100.00
69027;BME280;56080;47.594;19.116;2023-04-08T23:38:52;100925;;;5.05;100.00
69027;BME280;56080;47.594;19.116;2023-04-08T23:48:52;100921;;;5.13;100.00
69027;BME280;56080;47.594;19.116;2023-04-08T23:58:53;100914;;;5.09;100.00
